createdAt,value
2019-02-09T00:02:22.020Z,2.10
2019-02-09T00:05:07.130Z,2.03
2019-02-09T00:07:52.199Z,2.20
2019-02-09T00:10:36.783Z,1.67
2019-02-09T00:13:21.415Z,1.83
2019-02-09T00:16:06.456Z,2.17
2019-02-09T00:18:51.274Z,2.10
2019-02-09T00:21:35.922Z,2.10
2019-02-09T00:24:20.498Z,1.83
2019-02-09T00:27:04.939Z,2.07
2019-02-09T00:29:49.599Z,1.93
2019-02-09T00:32:34.614Z,2.20
2019-02-09T00:35:19.869Z,2.07
2019-02-09T00:38:04.575Z,2.50
2019-02-09T00:40:49.384Z,2.00
2019-02-09T00:43:34.242Z,2.00
2019-02-09T00:46:19.092Z,2.00
2019-02-09T00:49:04.011Z,2.13
2019-02-09T00:51:48.536Z,1.97
2019-02-09T00:54:33.138Z,2.10
2019-02-09T00:57:18.188Z,1.90
2019-02-09T01:00:12.631Z,2.00
2019-02-09T01:02:57.464Z,2.30
2019-02-09T01:05:44.108Z,1.90
2019-02-09T01:08:29.652Z,2.20
2019-02-09T01:11:14.437Z,1.87
2019-02-09T01:13:59.177Z,2.73
2019-02-09T01:16:44.199Z,2.20
2019-02-09T01:19:28.903Z,2.23
2019-02-09T01:22:13.603Z,2.30
2019-02-09T01:24:58.271Z,2.17
2019-02-09T01:27:42.907Z,2.20
2019-02-09T01:30:28.135Z,2.47
2019-02-09T01:33:12.920Z,2.23
2019-02-09T01:35:58.423Z,2.13
2019-02-09T01:38:43.173Z,1.83
2019-02-09T01:41:27.722Z,2.23
2019-02-09T01:44:12.897Z,2.00
2019-02-09T01:46:57.378Z,2.03
2019-02-09T01:49:42.097Z,2.00
2019-02-09T01:52:26.597Z,2.00
2019-02-09T01:55:11.500Z,1.93
2019-02-09T01:57:58.544Z,2.17
2019-02-09T02:00:43.402Z,1.93
2019-02-09T02:03:28.552Z,2.23
2019-02-09T02:06:13.077Z,2.00
2019-02-09T02:08:57.493Z,1.93
2019-02-09T02:11:42.252Z,1.93
2019-02-09T02:14:27.411Z,2.17
2019-02-09T02:17:12.391Z,2.10
2019-02-09T02:19:56.838Z,2.10
2019-02-09T02:22:41.823Z,2.17
2019-02-09T02:25:27.017Z,1.90
2019-02-09T02:28:11.998Z,2.20
2019-02-09T02:30:56.588Z,2.23
2019-02-09T02:33:41.880Z,1.90
2019-02-09T02:36:26.894Z,2.27
2019-02-09T02:39:11.427Z,2.00
2019-02-09T02:41:56.046Z,2.37
2019-02-09T02:44:40.517Z,2.60
2019-02-09T02:47:25.371Z,2.13
2019-02-09T02:50:12.618Z,2.37
2019-02-09T02:52:57.343Z,2.30
2019-02-09T02:55:41.914Z,2.40
2019-02-09T02:58:26.435Z,2.40
2019-02-09T03:01:11.065Z,2.00
2019-02-09T03:03:55.470Z,2.03
2019-02-09T03:06:40.041Z,2.03
2019-02-09T03:09:24.728Z,2.20
2019-02-09T03:12:09.076Z,1.97
2019-02-09T03:14:53.847Z,1.90
2019-02-09T03:17:38.813Z,2.00
2019-02-09T03:20:23.595Z,1.93
2019-02-09T03:23:08.603Z,2.20
2019-02-09T03:25:53.486Z,2.13
2019-02-09T03:28:38.106Z,1.70
2019-02-09T03:31:22.544Z,1.73
2019-02-09T03:34:07.509Z,1.90
2019-02-09T03:36:52.433Z,1.60
2019-02-09T03:39:37.306Z,1.60
2019-02-09T03:42:22.126Z,1.70
2019-02-09T03:45:25.837Z,1.60
2019-02-09T03:48:10.750Z,1.40
2019-02-09T03:50:55.338Z,1.40
2019-02-09T03:53:40.343Z,1.60
2019-02-09T03:56:25.215Z,1.60
2019-02-09T03:59:09.817Z,1.60
2019-02-09T04:01:54.505Z,1.50
2019-02-09T04:04:39.263Z,1.40
2019-02-09T04:07:24.002Z,1.40
2019-02-09T04:10:11.602Z,1.33
2019-02-09T04:12:56.286Z,1.50
2019-02-09T04:15:40.963Z,1.40
2019-02-09T04:18:25.678Z,1.20
2019-02-09T04:21:10.972Z,1.27
2019-02-09T04:23:55.485Z,1.20
2019-02-09T04:26:40.130Z,1.23
2019-02-09T04:29:24.897Z,1.20
2019-02-09T04:32:09.900Z,1.10
2019-02-09T04:34:54.407Z,1.07
2019-02-09T04:37:39.051Z,1.20
2019-02-09T04:40:29.696Z,1.40
2019-02-09T04:43:14.202Z,1.00
2019-02-09T04:45:58.826Z,1.00
2019-02-09T04:48:43.527Z,1.20
2019-02-09T04:51:28.045Z,1.20
2019-02-09T04:54:12.998Z,1.10
2019-02-09T04:56:57.745Z,1.17
2019-02-09T04:59:42.090Z,1.23
2019-02-09T05:02:26.727Z,1.40
2019-02-09T05:05:11.888Z,1.37
2019-02-09T05:07:56.879Z,1.40
2019-02-09T05:10:41.521Z,1.20
2019-02-09T05:13:26.025Z,1.33
2019-02-09T05:16:10.688Z,1.30
2019-02-09T05:18:55.227Z,1.57
2019-02-09T05:21:39.920Z,1.30
2019-02-09T05:24:24.876Z,1.33
2019-02-09T05:27:09.538Z,1.30
2019-02-09T05:29:54.060Z,1.20
2019-02-09T05:32:38.635Z,1.57
2019-02-09T05:35:23.715Z,1.37
2019-02-09T05:38:08.330Z,1.50
2019-02-09T05:40:53.403Z,1.30
2019-02-09T05:43:37.927Z,1.33
2019-02-09T05:46:22.673Z,1.30
2019-02-09T05:49:07.294Z,1.50
2019-02-09T05:51:51.957Z,1.30
2019-02-09T05:54:36.282Z,1.53
2019-02-09T05:57:21.126Z,1.87
2019-02-09T06:00:19.817Z,1.43
2019-02-09T06:03:04.781Z,1.60
2019-02-09T06:05:49.342Z,1.53
2019-02-09T06:08:34.353Z,1.67
2019-02-09T06:11:19.346Z,1.40
2019-02-09T06:14:03.921Z,1.60
2019-02-09T06:16:48.363Z,1.40
2019-02-09T06:19:32.785Z,1.37
2019-02-09T06:22:17.475Z,1.77
2019-02-09T06:25:02.251Z,1.43
2019-02-09T06:27:47.358Z,1.43
2019-02-09T06:30:31.957Z,1.40
2019-02-09T06:33:16.479Z,1.57
2019-02-09T06:36:01.020Z,1.83
2019-02-09T06:38:45.536Z,1.40
2019-02-09T06:41:30.566Z,1.43
2019-02-09T06:44:15.094Z,1.40
2019-02-09T06:46:59.674Z,1.20
2019-02-09T06:49:44.520Z,1.30
2019-02-09T06:52:29.110Z,1.07
2019-02-09T06:55:14.759Z,1.27
2019-02-09T06:57:59.311Z,1.20
2019-02-09T07:00:43.848Z,1.37
2019-02-09T07:03:28.537Z,1.70
2019-02-09T07:06:13.711Z,1.60
2019-02-09T07:08:58.620Z,1.70
2019-02-09T07:11:43.161Z,1.60
2019-02-09T07:14:27.988Z,1.50
2019-02-09T07:17:13.067Z,1.43
2019-02-09T07:19:57.990Z,1.73
2019-02-09T07:22:43.061Z,1.73
2019-02-09T07:25:28.595Z,2.00
2019-02-09T07:28:13.455Z,1.80
2019-02-09T07:30:58.796Z,1.70
2019-02-09T07:33:43.365Z,1.43
2019-02-09T07:36:28.258Z,1.87
2019-02-09T07:39:12.883Z,1.87
2019-02-09T07:41:57.666Z,1.60
2019-02-09T07:44:42.352Z,1.70
2019-02-09T07:47:27.203Z,2.30
2019-02-09T07:50:14.695Z,1.80
2019-02-09T07:52:59.726Z,1.73
2019-02-09T07:55:45.023Z,1.80
2019-02-09T07:58:29.795Z,1.50
2019-02-09T08:01:15.090Z,1.60
2019-02-09T08:03:59.942Z,1.73
2019-02-09T08:06:44.894Z,1.67
2019-02-09T08:09:29.827Z,1.97
2019-02-09T08:12:15.107Z,1.63
2019-02-09T08:14:59.981Z,1.70
2019-02-09T08:17:45.286Z,1.67
2019-02-09T08:20:30.733Z,1.70
2019-02-09T08:23:15.890Z,1.27
2019-02-09T08:26:00.727Z,1.50
2019-02-09T08:28:45.434Z,1.30
2019-02-09T08:31:30.403Z,1.20
2019-02-09T08:34:15.031Z,1.13
2019-02-09T08:36:59.862Z,1.50
2019-02-09T08:39:44.719Z,1.53
2019-02-09T08:42:29.272Z,1.00
2019-02-09T08:45:16.316Z,0.70
2019-02-09T08:48:00.938Z,0.70
2019-02-09T08:50:51.850Z,0.90
2019-02-09T08:53:36.867Z,0.83
2019-02-09T08:56:21.597Z,1.40
2019-02-09T08:59:06.649Z,0.90
2019-02-09T09:01:51.380Z,1.43
2019-02-09T09:04:36.525Z,1.50
2019-02-09T09:07:21.270Z,1.40
2019-02-09T09:10:11.910Z,1.37
2019-02-09T09:12:58.415Z,1.50
2019-02-09T09:15:50.086Z,1.70
2019-02-09T09:18:35.477Z,1.53
2019-02-09T09:21:20.334Z,1.67
2019-02-09T09:24:05.400Z,1.90
2019-02-09T09:26:49.914Z,2.07
2019-02-09T09:29:34.758Z,2.20
2019-02-09T09:32:19.680Z,1.80
2019-02-09T09:35:07.354Z,2.10
2019-02-09T09:37:53.341Z,3.73
2019-02-09T09:40:40.429Z,2.27
2019-02-09T09:43:25.339Z,2.00
2019-02-09T09:46:09.908Z,1.90
2019-02-09T09:48:54.940Z,2.20
2019-02-09T09:51:40.120Z,2.30
2019-02-09T09:54:25.316Z,1.73
2019-02-09T09:57:09.989Z,1.73
2019-02-09T09:59:55.075Z,2.60
2019-02-09T10:02:39.711Z,2.03
2019-02-09T10:05:24.245Z,2.20
2019-02-09T10:08:09.469Z,1.90
2019-02-09T10:10:54.477Z,2.00
2019-02-09T10:13:39.261Z,2.10
2019-02-09T10:16:23.979Z,2.17
2019-02-09T10:19:08.530Z,2.17
2019-02-09T10:21:53.085Z,2.40
2019-02-09T10:24:38.042Z,2.03
2019-02-09T10:27:22.886Z,1.90
2019-02-09T10:30:11.642Z,2.30
2019-02-09T10:32:56.556Z,2.00
2019-02-09T10:35:41.668Z,2.10
2019-02-09T10:38:26.701Z,2.13
2019-02-09T10:41:11.240Z,2.03
2019-02-09T10:43:55.741Z,2.40
2019-02-09T10:46:40.611Z,2.50
2019-02-09T10:49:25.397Z,2.20
2019-02-09T10:52:10.012Z,2.27
2019-02-09T10:54:55.015Z,2.23
2019-02-09T10:57:39.569Z,2.67
2019-02-09T11:00:39.402Z,2.30
2019-02-09T11:03:24.346Z,2.30
2019-02-09T11:06:09.398Z,2.30
2019-02-09T11:08:54.057Z,2.43
2019-02-09T11:11:39.179Z,2.20
2019-02-09T11:14:24.176Z,2.30
2019-02-09T11:17:09.049Z,2.13
2019-02-09T11:19:53.474Z,3.23
2019-02-09T11:22:38.371Z,2.40
2019-02-09T11:25:24.218Z,2.33
2019-02-09T11:28:08.927Z,2.10
2019-02-09T11:30:53.797Z,2.17
2019-02-09T11:33:38.578Z,2.40
2019-02-09T11:36:23.170Z,2.50
2019-02-09T11:39:07.969Z,2.00
2019-02-09T11:41:52.935Z,2.23
2019-02-09T11:44:41.104Z,2.60
2019-02-09T11:47:25.134Z,3.10
2019-02-09T11:50:12.140Z,3.07
2019-02-09T11:52:57.414Z,2.57
2019-02-09T11:55:42.285Z,2.40
2019-02-09T11:58:27.443Z,2.13
2019-02-09T12:01:12.510Z,2.47
2019-02-09T12:03:57.770Z,2.43
2019-02-09T12:06:42.629Z,2.40
2019-02-09T12:09:27.326Z,2.83
2019-02-09T12:12:11.892Z,2.13
2019-02-09T12:14:56.422Z,2.10
2019-02-09T12:17:40.915Z,2.53
2019-02-09T12:20:26.165Z,2.43
2019-02-09T12:23:11.188Z,2.40
2019-02-09T12:25:56.141Z,2.20
2019-02-09T12:28:41.247Z,2.33
2019-02-09T12:31:26.480Z,2.07
2019-02-09T12:34:11.365Z,2.77
2019-02-09T12:36:55.991Z,2.30
2019-02-09T12:39:41.046Z,2.50
2019-02-09T12:42:25.572Z,2.53
2019-02-09T12:45:16.519Z,2.70
2019-02-09T12:48:01.842Z,2.50
2019-02-09T12:50:46.479Z,2.53
2019-02-09T12:53:31.348Z,2.73
2019-02-09T12:56:15.807Z,3.03
2019-02-09T12:59:00.281Z,2.40
2019-02-09T13:01:44.920Z,2.47
2019-02-09T13:04:29.526Z,2.50
2019-02-09T13:07:14.669Z,2.70
2019-02-09T13:09:59.411Z,2.93
2019-02-09T13:12:44.379Z,2.50
2019-02-09T13:15:30.987Z,2.70
2019-02-09T13:18:15.971Z,2.30
2019-02-09T13:21:00.989Z,2.40
2019-02-09T13:23:45.701Z,2.30
2019-02-09T13:26:30.760Z,2.03
2019-02-09T13:29:15.705Z,2.60
2019-02-09T13:32:00.457Z,2.20
2019-02-09T13:34:45.433Z,2.10
2019-02-09T13:37:30.623Z,2.23
2019-02-09T13:40:17.582Z,2.40
2019-02-09T13:43:02.299Z,2.20
2019-02-09T13:45:49.102Z,1.97
2019-02-09T13:48:33.928Z,2.20
2019-02-09T13:51:19.069Z,2.30
2019-02-09T13:54:04.046Z,2.27
2019-02-09T13:56:48.927Z,2.80
2019-02-09T13:59:34.056Z,2.40
2019-02-09T14:02:18.905Z,2.27
2019-02-09T14:05:06.443Z,2.50
2019-02-09T14:07:51.330Z,2.50
2019-02-09T14:10:36.191Z,2.03
2019-02-09T14:13:20.906Z,2.00
2019-02-09T14:16:08.384Z,1.83
2019-02-09T14:18:52.615Z,2.37
2019-02-09T14:21:37.209Z,2.03
2019-02-09T14:24:22.450Z,1.73
2019-02-09T14:27:07.388Z,2.20
2019-02-09T14:29:52.432Z,2.00
2019-02-09T14:32:37.397Z,1.57
2019-02-09T14:35:22.742Z,2.30
2019-02-09T14:38:08.277Z,7.63
2019-02-09T14:40:53.538Z,2.50
2019-02-09T14:43:38.469Z,2.60
2019-02-09T14:46:22.966Z,2.80
2019-02-09T14:49:07.756Z,2.40
2019-02-09T14:51:52.477Z,2.50
2019-02-09T14:54:37.443Z,2.63
2019-02-09T14:57:22.570Z,2.80
2019-02-09T15:00:17.233Z,3.50
2019-02-09T15:03:03.254Z,2.40
2019-02-09T15:05:48.507Z,2.33
2019-02-09T15:08:33.454Z,2.23
2019-02-09T15:11:18.580Z,2.60
2019-02-09T15:14:03.825Z,2.60
2019-02-09T15:16:48.775Z,2.13
2019-02-09T15:19:33.396Z,2.83
2019-02-09T15:22:17.923Z,2.73
2019-02-09T15:25:05.170Z,2.77
2019-02-09T15:27:50.144Z,3.00
2019-02-09T15:30:34.774Z,2.47
2019-02-09T15:33:19.910Z,3.03
2019-02-09T15:36:04.969Z,2.67
2019-02-09T15:38:50.213Z,2.73
2019-02-09T15:41:34.713Z,2.57
2019-02-09T15:44:19.777Z,2.23
2019-02-09T15:47:04.665Z,2.47
2019-02-09T15:49:49.535Z,2.70
2019-02-09T15:52:34.665Z,2.20
2019-02-09T15:55:23.572Z,2.93
2019-02-09T15:58:08.351Z,2.33
2019-02-09T16:00:52.974Z,2.10
2019-02-09T16:03:37.981Z,2.43
2019-02-09T16:06:22.759Z,2.80
2019-02-09T16:09:07.894Z,2.30
2019-02-09T16:11:52.959Z,2.20
2019-02-09T16:14:38.127Z,2.30
2019-02-09T16:17:22.914Z,2.17
2019-02-09T16:20:11.336Z,2.50
2019-02-09T16:22:56.237Z,2.33
2019-02-09T16:25:41.408Z,1.90
2019-02-09T16:28:25.795Z,1.60
2019-02-09T16:31:10.468Z,1.90
2019-02-09T16:33:55.091Z,1.67
2019-02-09T16:36:40.086Z,1.70
2019-02-09T16:39:25.114Z,1.30
2019-02-09T16:42:10.176Z,1.70
2019-02-09T16:44:55.407Z,1.80
2019-02-09T16:47:40.451Z,2.10
2019-02-09T16:50:25.724Z,1.87
2019-02-09T16:53:10.716Z,1.70
2019-02-09T16:55:55.547Z,2.13
2019-02-09T16:58:40.309Z,2.10
2019-02-09T17:01:25.219Z,2.17
2019-02-09T17:04:10.284Z,2.60
2019-02-09T17:06:55.181Z,2.60
2019-02-09T17:09:40.259Z,2.60
2019-02-09T17:12:24.869Z,2.20
2019-02-09T17:15:13.981Z,2.50
2019-02-09T17:17:58.690Z,2.83
2019-02-09T17:20:43.406Z,3.93
2019-02-09T17:23:28.494Z,2.83
2019-02-09T17:26:13.097Z,3.23
2019-02-09T17:28:58.137Z,2.60
2019-02-09T17:31:42.704Z,2.70
2019-02-09T17:34:27.831Z,3.10
2019-02-09T17:37:12.710Z,2.53
2019-02-09T17:39:57.300Z,2.80
2019-02-09T17:42:42.289Z,2.87
2019-02-09T17:45:48.380Z,2.60
2019-02-09T17:48:33.402Z,2.80
2019-02-09T17:51:18.448Z,2.30
2019-02-09T17:54:03.525Z,3.10
2019-02-09T17:56:48.555Z,2.80
2019-02-09T17:59:33.456Z,3.50
2019-02-09T18:02:17.973Z,2.93
2019-02-09T18:05:04.594Z,3.23
2019-02-09T18:07:49.703Z,3.47
2019-02-09T18:10:35.024Z,4.23
2019-02-09T18:13:20.069Z,2.90
2019-02-09T18:16:05.351Z,2.47
2019-02-09T18:18:50.303Z,3.10
2019-02-09T18:21:35.347Z,2.80
2019-02-09T18:24:19.833Z,2.80
2019-02-09T18:27:04.429Z,2.67
2019-02-09T18:29:49.487Z,2.60
2019-02-09T18:32:35.829Z,2.90
2019-02-09T18:35:20.796Z,3.10
2019-02-09T18:38:05.719Z,3.30
2019-02-09T18:40:50.734Z,2.63
2019-02-09T18:43:35.377Z,3.23
2019-02-09T18:46:19.899Z,3.10
2019-02-09T18:49:04.906Z,2.80
2019-02-09T18:51:49.894Z,2.67
2019-02-09T18:54:34.765Z,3.00
2019-02-09T18:57:19.996Z,3.30
2019-02-09T19:00:08.529Z,2.37
2019-02-09T19:02:53.732Z,2.80
2019-02-09T19:05:38.465Z,3.03
2019-02-09T19:08:23.510Z,2.93
2019-02-09T19:11:08.136Z,2.77
2019-02-09T19:13:53.372Z,2.40
2019-02-09T19:16:38.673Z,3.17
2019-02-09T19:19:23.568Z,2.63
2019-02-09T19:22:08.371Z,3.10
2019-02-09T19:24:53.269Z,2.80
2019-02-09T19:27:38.361Z,2.83
2019-02-09T19:30:24.408Z,2.53
2019-02-09T19:33:09.633Z,2.60
2019-02-09T19:35:54.427Z,2.27
2019-02-09T19:38:38.910Z,3.30
2019-02-09T19:41:23.698Z,2.60
2019-02-09T19:44:08.604Z,3.07
2019-02-09T19:46:53.287Z,2.80
2019-02-09T19:49:37.949Z,2.67
2019-02-09T19:52:23.102Z,2.83
2019-02-09T19:55:22.989Z,2.87
2019-02-09T19:58:08.497Z,3.13
2019-02-09T20:00:53.433Z,3.20
2019-02-09T20:03:38.652Z,2.90
2019-02-09T20:06:23.935Z,2.63
2019-02-09T20:09:09.134Z,2.73
2019-02-09T20:11:54.049Z,2.57
2019-02-09T20:14:38.852Z,2.47
2019-02-09T20:17:23.970Z,2.70
2019-02-09T20:20:11.878Z,2.67
2019-02-09T20:22:57.027Z,2.60
2019-02-09T20:25:41.788Z,2.80
2019-02-09T20:28:26.452Z,2.33
2019-02-09T20:31:11.493Z,2.60
2019-02-09T20:33:56.382Z,2.57
2019-02-09T20:36:40.993Z,2.33
2019-02-09T20:39:25.922Z,2.40
2019-02-09T20:42:10.562Z,2.47
2019-02-09T20:44:55.227Z,2.60
2019-02-09T20:47:47.471Z,2.60
2019-02-09T20:50:27.197Z,2.27
2019-02-09T20:53:12.085Z,2.27
2019-02-09T20:55:57.430Z,2.70
2019-02-09T20:58:42.434Z,2.30
2019-02-09T21:01:27.812Z,2.20
2019-02-09T21:04:12.483Z,2.53
2019-02-09T21:06:57.008Z,2.83
2019-02-09T21:09:41.913Z,2.80
2019-02-09T21:12:26.602Z,2.80
2019-02-09T21:15:14.226Z,2.77
2019-02-09T21:17:59.185Z,2.23
2019-02-09T21:20:43.846Z,2.97
2019-02-09T21:23:29.448Z,2.70
2019-02-09T21:26:14.467Z,2.90
2019-02-09T21:28:59.224Z,2.57
2019-02-09T21:31:43.795Z,2.73
2019-02-09T21:34:29.303Z,2.43
2019-02-09T21:37:14.014Z,2.70
2019-02-09T21:39:59.158Z,2.60
2019-02-09T21:42:44.332Z,2.53
2019-02-09T21:45:29.593Z,2.63
2019-02-09T21:48:14.678Z,2.57
2019-02-09T21:50:59.638Z,2.97
2019-02-09T21:53:44.660Z,2.40
2019-02-09T21:56:29.272Z,2.07
2019-02-09T21:59:14.395Z,2.20
2019-02-09T22:01:59.408Z,3.13
2019-02-09T22:04:43.942Z,2.53
2019-02-09T22:07:28.451Z,2.90
2019-02-09T22:10:16.126Z,2.30
2019-02-09T22:13:01.412Z,2.90
2019-02-09T22:15:46.326Z,2.73
2019-02-09T22:18:31.373Z,2.73
2019-02-09T22:21:16.126Z,2.80
2019-02-09T22:24:01.082Z,2.87
2019-02-09T22:26:45.758Z,2.80
2019-02-09T22:29:30.321Z,2.63
2019-02-09T22:32:14.876Z,2.67
2019-02-09T22:34:59.903Z,2.50
2019-02-09T22:37:45.001Z,2.50
2019-02-09T22:40:31.334Z,2.53
2019-02-09T22:43:16.148Z,2.73
2019-02-09T22:46:01.172Z,2.20
2019-02-09T22:48:46.246Z,3.13
2019-02-09T22:51:31.187Z,2.57
2019-02-09T22:54:15.708Z,3.23
2019-02-09T22:57:00.378Z,2.87
2019-02-09T22:59:44.920Z,2.63
2019-02-09T23:02:29.971Z,3.13
2019-02-09T23:05:34.982Z,2.60
2019-02-09T23:08:19.937Z,2.70
2019-02-09T23:11:04.858Z,2.73
2019-02-09T23:13:49.941Z,2.67
2019-02-09T23:16:34.903Z,2.93
2019-02-09T23:19:19.710Z,2.40
2019-02-09T23:22:04.703Z,2.70
2019-02-09T23:24:49.207Z,2.40
2019-02-09T23:27:34.273Z,3.10
2019-02-09T23:30:18.822Z,2.43
2019-02-09T23:33:03.438Z,2.90
2019-02-09T23:35:48.368Z,3.33
2019-02-09T23:38:32.827Z,2.57
2019-02-09T23:41:17.511Z,3.10
2019-02-09T23:44:02.448Z,2.97
2019-02-09T23:46:47.026Z,2.93
2019-02-09T23:49:31.546Z,2.77
2019-02-09T23:52:16.080Z,2.30
2019-02-09T23:55:00.803Z,2.73
2019-02-09T23:57:46.003Z,2.90
